IBE1CA LEMD-LETL
Flight info
| Callsign | IBE1CA |
|---|---|
| Flight time | 0h 29m |
| Altitude | 16000 |
| Route | NANDO |
| Aircraft | A346/H-SDE2E3FGHIJ3J4J5M1RWXY/LB1D1 |
Departure
| Time | 2026-05-07 17:30 |
|---|---|
| Airport | Adolfo Suárez Madrid–Barajas Airport (LEMD) |
Arrival
| Time | 2026-05-07 17:59 |
|---|---|
| Airport | Teruel Airport (LETL) |
| Time | Latitude | Longitude | Altitude | Speed | Heading |
|---|---|---|---|---|---|
| 2026-05-07 17:05 | 40.49562 | -3.56639 | 1979 ft | 0 kts | 271° |
| 2026-05-07 17:18 | 40.49562 | -3.56637 | 1981 ft | 2 kts | 271° |
| 2026-05-07 17:18 | 40.49562 | -3.56603 | 1982 ft | 3 kts | 271° |
| 2026-05-07 17:18 | 40.49563 | -3.56575 | 1980 ft | 4 kts | 252° |
| 2026-05-07 17:19 | 40.49573 | -3.56555 | 1980 ft | 4 kts | 214° |
| 2026-05-07 17:19 | 40.49592 | -3.56546 | 1981 ft | 4 kts | 184° |
| 2026-05-07 17:19 | 40.49619 | -3.56546 | 1982 ft | 4 kts | 179° |
| 2026-05-07 17:19 | 40.49631 | -3.56546 | 1981 ft | 1 kts | 179° |
| 2026-05-07 17:20 | 40.49632 | -3.56546 | 1981 ft | 0 kts | 179° |
| 2026-05-07 17:23 | 40.49587 | -3.56543 | 1980 ft | 8 kts | 162° |
| 2026-05-07 17:23 | 40.49557 | -3.56468 | 1980 ft | 11 kts | 77° |
| 2026-05-07 17:24 | 40.49554 | -3.56346 | 1976 ft | 13 kts | 91° |
| 2026-05-07 17:24 | 40.49554 | -3.56329 | 1975 ft | 2 kts | 88° |
| 2026-05-07 17:24 | 40.49554 | -3.56277 | 1974 ft | 15 kts | 90° |
| 2026-05-07 17:25 | 40.49554 | -3.56114 | 1968 ft | 5 kts | 89° |
| 2026-05-07 17:25 | 40.49554 | -3.56077 | 1968 ft | 1 kts | 90° |
| 2026-05-07 17:25 | 40.49554 | -3.56072 | 1968 ft | 0 kts | 91° |
| 2026-05-07 17:26 | 40.49554 | -3.56046 | 1968 ft | 5 kts | 90° |
| 2026-05-07 17:27 | 40.49553 | -3.55987 | 1969 ft | 8 kts | 90° |
| 2026-05-07 17:27 | 40.49547 | -3.55903 | 1966 ft | 10 kts | 104° |
| 2026-05-07 17:27 | 40.49511 | -3.55815 | 1963 ft | 11 kts | 145° |
| 2026-05-07 17:27 | 40.49465 | -3.55770 | 1966 ft | 0 kts | 141° |
| 2026-05-07 17:28 | 40.49464 | -3.55769 | 1966 ft | 0 kts | 141° |
| 2026-05-07 17:29 | 40.49462 | -3.55767 | 1966 ft | 4 kts | 141° |
| 2026-05-07 17:29 | 40.49341 | -3.55642 | 1963 ft | 51 kts | 142° |
| 2026-05-07 17:29 | 40.48852 | -3.55144 | 1961 ft | 124 kts | 142° |
| 2026-05-07 17:29 | 40.47994 | -3.54275 | 2035 ft | 176 kts | 142° |
| 2026-05-07 17:30 | 40.46974 | -3.53256 | 2631 ft | 189 kts | 141° |
| 2026-05-07 17:30 | 40.45925 | -3.52207 | 3535 ft | 189 kts | 140° |
| 2026-05-07 17:30 | 40.44906 | -3.51140 | 4530 ft | 183 kts | 141° |
| 2026-05-07 17:30 | 40.43916 | -3.50077 | 5282 ft | 188 kts | 140° |
| 2026-05-07 17:31 | 40.42981 | -3.48799 | 5761 ft | 206 kts | 129° |
| 2026-05-07 17:31 | 40.42209 | -3.47105 | 6244 ft | 226 kts | 117° |
| 2026-05-07 17:31 | 40.41548 | -3.45120 | 6732 ft | 248 kts | 114° |
| 2026-05-07 17:31 | 40.40870 | -3.42949 | 7320 ft | 266 kts | 114° |
| 2026-05-07 17:32 | 40.40142 | -3.40623 | 8070 ft | 280 kts | 114° |
| 2026-05-07 17:32 | 40.39384 | -3.38244 | 9070 ft | 285 kts | 115° |
| 2026-05-07 17:32 | 40.38606 | -3.35829 | 10093 ft | 290 kts | 115° |
| 2026-05-07 17:32 | 40.38075 | -3.34205 | 10671 ft | 296 kts | 115° |
| 2026-05-07 17:33 | 40.36940 | -3.30743 | 11556 ft | 321 kts | 115° |
| 2026-05-07 17:33 | 40.36031 | -3.27969 | 12189 ft | 340 kts | 115° |
| 2026-05-07 17:33 | 40.35066 | -3.25035 | 12816 ft | 359 kts | 115° |
| 2026-05-07 17:33 | 40.34053 | -3.21966 | 13667 ft | 371 kts | 115° |
| 2026-05-07 17:34 | 40.33017 | -3.18839 | 14604 ft | 376 kts | 115° |
| 2026-05-07 17:34 | 40.31970 | -3.15676 | 15326 ft | 380 kts | 115° |
| 2026-05-07 17:34 | 40.30916 | -3.12477 | 15782 ft | 383 kts | 115° |
| 2026-05-07 17:34 | 40.29853 | -3.09262 | 15913 ft | 385 kts | 115° |
| 2026-05-07 17:35 | 40.28786 | -3.06052 | 15927 ft | 384 kts | 115° |
| 2026-05-07 17:35 | 40.27732 | -3.02877 | 15928 ft | 384 kts | 115° |
| 2026-05-07 17:35 | 40.26660 | -2.99651 | 15917 ft | 384 kts | 115° |
| 2026-05-07 17:35 | 40.25592 | -2.96440 | 15928 ft | 384 kts | 115° |
| 2026-05-07 17:36 | 40.24522 | -2.93230 | 15924 ft | 385 kts | 115° |
| 2026-05-07 17:36 | 40.23447 | -2.90020 | 15921 ft | 384 kts | 115° |
| 2026-05-07 17:36 | 40.22373 | -2.86811 | 15937 ft | 384 kts | 115° |
| 2026-05-07 17:36 | 40.21301 | -2.83600 | 15936 ft | 385 kts | 115° |
| 2026-05-07 17:37 | 40.20225 | -2.80386 | 15934 ft | 385 kts | 115° |
| 2026-05-07 17:37 | 40.19147 | -2.77177 | 15937 ft | 385 kts | 115° |
| 2026-05-07 17:37 | 40.18067 | -2.73963 | 15940 ft | 385 kts | 115° |
| 2026-05-07 17:37 | 40.16989 | -2.70759 | 15938 ft | 384 kts | 115° |
| 2026-05-07 17:38 | 40.15913 | -2.67561 | 15946 ft | 384 kts | 115° |
| 2026-05-07 17:38 | 40.14834 | -2.64351 | 15942 ft | 385 kts | 115° |
| 2026-05-07 17:38 | 40.13751 | -2.61149 | 15940 ft | 385 kts | 116° |
| 2026-05-07 17:38 | 40.12670 | -2.57949 | 15915 ft | 381 kts | 115° |
| 2026-05-07 17:39 | 40.11610 | -2.54800 | 15480 ft | 377 kts | 115° |
| 2026-05-07 17:39 | 40.10548 | -2.51660 | 14861 ft | 378 kts | 116° |
| 2026-05-07 17:39 | 40.09485 | -2.48525 | 14329 ft | 376 kts | 116° |
| 2026-05-07 17:39 | 40.08423 | -2.45403 | 13855 ft | 373 kts | 115° |
| 2026-05-07 17:40 | 40.07388 | -2.42359 | 13359 ft | 370 kts | 115° |
| 2026-05-07 17:40 | 40.06350 | -2.39300 | 12823 ft | 367 kts | 115° |
| 2026-05-07 17:40 | 40.05317 | -2.36261 | 12307 ft | 363 kts | 116° |
| 2026-05-07 17:40 | 40.04296 | -2.33275 | 11968 ft | 355 kts | 115° |
| 2026-05-07 17:41 | 40.03306 | -2.30374 | 11761 ft | 344 kts | 115° |
| 2026-05-07 17:41 | 40.02350 | -2.27565 | 11568 ft | 333 kts | 115° |
| 2026-05-07 17:41 | 40.01426 | -2.24847 | 11366 ft | 322 kts | 115° |
| 2026-05-07 17:41 | 40.00523 | -2.22206 | 11186 ft | 312 kts | 116° |
| 2026-05-07 17:42 | 39.99644 | -2.19656 | 11000 ft | 303 kts | 115° |
| 2026-05-07 17:42 | 39.98797 | -2.17179 | 10828 ft | 294 kts | 114° |
| 2026-05-07 17:42 | 39.98250 | -2.14651 | 10644 ft | 286 kts | 98° |
| 2026-05-07 17:42 | 39.98237 | -2.12098 | 10481 ft | 279 kts | 84° |
| 2026-05-07 17:43 | 39.98694 | -2.09673 | 10307 ft | 272 kts | 70° |
| 2026-05-07 17:43 | 39.99551 | -2.07521 | 10152 ft | 264 kts | 56° |
| 2026-05-07 17:43 | 40.00737 | -2.05733 | 9951 ft | 260 kts | 43° |
| 2026-05-07 17:43 | 40.02199 | -2.04347 | 9613 ft | 260 kts | 29° |
| 2026-05-07 17:44 | 40.03854 | -2.03421 | 9291 ft | 258 kts | 19° |
| 2026-05-07 17:44 | 40.05545 | -2.02645 | 8958 ft | 257 kts | 25° |
| 2026-05-07 17:44 | 40.07112 | -2.01537 | 8626 ft | 256 kts | 37° |
| 2026-05-07 17:44 | 40.08433 | -2.00012 | 8325 ft | 252 kts | 51° |
| 2026-05-07 17:45 | 40.09513 | -1.98225 | 8047 ft | 250 kts | 56° |
| 2026-05-07 17:45 | 40.10533 | -1.96392 | 7727 ft | 248 kts | 57° |
| 2026-05-07 17:45 | 40.11534 | -1.94553 | 7407 ft | 247 kts | 57° |
| 2026-05-07 17:45 | 40.12519 | -1.92752 | 7143 ft | 245 kts | 58° |
| 2026-05-07 17:46 | 40.13507 | -1.90944 | 6869 ft | 245 kts | 57° |
| 2026-05-07 17:46 | 40.14514 | -1.89089 | 7010 ft | 254 kts | 56° |
| 2026-05-07 17:46 | 40.15556 | -1.87185 | 7958 ft | 254 kts | 56° |
| 2026-05-07 17:46 | 40.16570 | -1.85332 | 8678 ft | 247 kts | 56° |
| 2026-05-07 17:47 | 40.17554 | -1.83537 | 8753 ft | 243 kts | 55° |
| 2026-05-07 17:47 | 40.18560 | -1.81706 | 8624 ft | 250 kts | 56° |
| 2026-05-07 17:47 | 40.19576 | -1.79856 | 8499 ft | 250 kts | 56° |
| 2026-05-07 17:47 | 40.20590 | -1.78000 | 8368 ft | 250 kts | 56° |
| 2026-05-07 17:48 | 40.21273 | -1.76755 | 8274 ft | 249 kts | 56° |
| 2026-05-07 17:48 | 40.22270 | -1.74937 | 8157 ft | 249 kts | 57° |
| 2026-05-07 17:48 | 40.23277 | -1.73089 | 8043 ft | 248 kts | 56° |
| 2026-05-07 17:48 | 40.24281 | -1.71250 | 7895 ft | 245 kts | 57° |
| 2026-05-07 17:49 | 40.25263 | -1.69455 | 7770 ft | 238 kts | 57° |
| 2026-05-07 17:49 | 40.26215 | -1.67711 | 7637 ft | 231 kts | 57° |
| 2026-05-07 17:49 | 40.27144 | -1.66006 | 7509 ft | 229 kts | 57° |
| 2026-05-07 17:49 | 40.28070 | -1.64312 | 7392 ft | 229 kts | 58° |
| 2026-05-07 17:50 | 40.29006 | -1.62586 | 7283 ft | 228 kts | 58° |
| 2026-05-07 17:50 | 40.29921 | -1.60897 | 7178 ft | 227 kts | 57° |
| 2026-05-07 17:50 | 40.30842 | -1.59205 | 7072 ft | 228 kts | 58° |
| 2026-05-07 17:50 | 40.31757 | -1.57521 | 6983 ft | 227 kts | 57° |
| 2026-05-07 17:51 | 40.32656 | -1.55862 | 6895 ft | 226 kts | 57° |
| 2026-05-07 17:51 | 40.33565 | -1.54190 | 6785 ft | 227 kts | 57° |
| 2026-05-07 17:51 | 40.34483 | -1.52500 | 6696 ft | 227 kts | 57° |
| 2026-05-07 17:51 | 40.35388 | -1.50827 | 6594 ft | 225 kts | 57° |
| 2026-05-07 17:52 | 40.36292 | -1.49164 | 6500 ft | 223 kts | 57° |
| 2026-05-07 17:52 | 40.37197 | -1.47503 | 6404 ft | 223 kts | 58° |
| 2026-05-07 17:52 | 40.38091 | -1.45846 | 6360 ft | 222 kts | 57° |
| 2026-05-07 17:52 | 40.38989 | -1.44185 | 6277 ft | 223 kts | 58° |
| 2026-05-07 17:53 | 40.39888 | -1.42525 | 6171 ft | 222 kts | 58° |
| 2026-05-07 17:53 | 40.40775 | -1.40879 | 6071 ft | 216 kts | 58° |
| 2026-05-07 17:53 | 40.41619 | -1.39315 | 5944 ft | 203 kts | 57° |
| 2026-05-07 17:53 | 40.42413 | -1.37858 | 5818 ft | 189 kts | 58° |
| 2026-05-07 17:54 | 40.43149 | -1.36501 | 5695 ft | 177 kts | 58° |
| 2026-05-07 17:54 | 40.43831 | -1.35238 | 5556 ft | 161 kts | 59° |
| 2026-05-07 17:54 | 40.44457 | -1.34076 | 5430 ft | 153 kts | 59° |
| 2026-05-07 17:54 | 40.45062 | -1.32945 | 5348 ft | 153 kts | 59° |
| 2026-05-07 17:55 | 40.45676 | -1.31800 | 5289 ft | 153 kts | 59° |
| 2026-05-07 17:55 | 40.46287 | -1.30655 | 5227 ft | 153 kts | 59° |
| 2026-05-07 17:55 | 40.46902 | -1.29519 | 5134 ft | 153 kts | 58° |
| 2026-05-07 17:55 | 40.47535 | -1.28379 | 5048 ft | 154 kts | 58° |
| 2026-05-07 17:56 | 40.48174 | -1.27247 | 4981 ft | 153 kts | 59° |
| 2026-05-07 17:56 | 40.48806 | -1.26115 | 4929 ft | 153 kts | 59° |
| 2026-05-07 17:56 | 40.49407 | -1.24962 | 4829 ft | 152 kts | 62° |
| 2026-05-07 17:56 | 40.49767 | -1.23715 | 4752 ft | 143 kts | 102° |
| 2026-05-07 17:57 | 40.49290 | -1.22685 | 4633 ft | 137 kts | 153° |
| 2026-05-07 17:57 | 40.48701 | -1.22360 | 4541 ft | 137 kts | 165° |
| 2026-05-07 17:57 | 40.47450 | -1.22148 | 4231 ft | 137 kts | 177° |
| 2026-05-07 17:57 | 40.46495 | -1.22078 | 4078 ft | 137 kts | 177° |
| 2026-05-07 17:58 | 40.45546 | -1.21991 | 3958 ft | 137 kts | 177° |
| 2026-05-07 17:58 | 40.44595 | -1.21933 | 3699 ft | 136 kts | 178° |
| 2026-05-07 17:58 | 40.43654 | -1.21885 | 3523 ft | 135 kts | 177° |
| 2026-05-07 17:58 | 40.42718 | -1.21840 | 3368 ft | 134 kts | 178° |
| 2026-05-07 17:59 | 40.41823 | -1.21791 | 3331 ft | 107 kts | 179° |
| 2026-05-07 17:59 | 40.41296 | -1.21763 | 3344 ft | 44 kts | 178° |
| 2026-05-07 17:59 | 40.41156 | -1.21756 | 3348 ft | 14 kts | 179° |
| 2026-05-07 17:59 | 40.41053 | -1.21752 | 3351 ft | 16 kts | 178° |
| 2026-05-07 18:00 | 40.40940 | -1.21746 | 3359 ft | 17 kts | 177° |
| 2026-05-07 18:00 | 40.40825 | -1.21738 | 3359 ft | 16 kts | 177° |
| 2026-05-07 18:00 | 40.40712 | -1.21731 | 3364 ft | 16 kts | 179° |
| 2026-05-07 18:00 | 40.40595 | -1.21727 | 3372 ft | 17 kts | 178° |
| 2026-05-07 18:01 | 40.40475 | -1.21720 | 3372 ft | 17 kts | 177° |
| 2026-05-07 18:01 | 40.40355 | -1.21713 | 3381 ft | 18 kts | 177° |
| 2026-05-07 18:01 | 40.40225 | -1.21705 | 3379 ft | 20 kts | 177° |
| 2026-05-07 18:01 | 40.40089 | -1.21682 | 3384 ft | 20 kts | 159° |
| 2026-05-07 18:02 | 40.40037 | -1.21687 | 3385 ft | 7 kts | 337° |
| 2026-05-07 18:02 | 40.40117 | -1.21702 | 3381 ft | 19 kts | 359° |
| 2026-05-07 18:02 | 40.40267 | -1.21707 | 3376 ft | 23 kts | 358° |
| 2026-05-07 18:03 | 40.40441 | -1.21719 | 3375 ft | 27 kts | 357° |
| 2026-05-07 18:03 | 40.40640 | -1.21728 | 3368 ft | 31 kts | 358° |
| 2026-05-07 18:03 | 40.40817 | -1.21739 | 3362 ft | 16 kts | 357° |
| 2026-05-07 18:03 | 40.40959 | -1.21747 | 3353 ft | 30 kts | 357° |
| 2026-05-07 18:04 | 40.41181 | -1.21759 | 3348 ft | 33 kts | 358° |
| 2026-05-07 18:04 | 40.41325 | -1.21770 | 3344 ft | 15 kts | 345° |
| 2026-05-07 18:04 | 40.41366 | -1.21883 | 3355 ft | 17 kts | 272° |
| 2026-05-07 18:04 | 40.41362 | -1.22049 | 3344 ft | 20 kts | 266° |
| 2026-05-07 18:05 | 40.41356 | -1.22228 | 3344 ft | 9 kts | 268° |
| 2026-05-07 18:05 | 40.41355 | -1.22287 | 3344 ft | 8 kts | 268° |
| 2026-05-07 18:05 | 40.41353 | -1.22377 | 3348 ft | 11 kts | 268° |
| 2026-05-07 18:05 | 40.41367 | -1.22492 | 3341 ft | 15 kts | 289° |
| 2026-05-07 18:06 | 40.41376 | -1.22568 | 3343 ft | 0 kts | 256° |
| 2026-05-07 18:06 | 40.41366 | -1.22596 | 3343 ft | 0 kts | 234° |
| 2026-05-07 18:06 | 40.41360 | -1.22605 | 3341 ft | 0 kts | 226° |
| 2026-05-07 18:06 | 40.41346 | -1.22624 | 3343 ft | 5 kts | 227° |
| 2026-05-07 18:07 | 40.41333 | -1.22642 | 3342 ft | 0 kts | 228° |
| 2026-05-07 18:07 | 40.41332 | -1.22644 | 3342 ft | 0 kts | 229° |